createdAt,value
2023-01-08T00:02:56.318Z,0.98
2023-01-08T00:06:06.894Z,1.15
2023-01-08T00:09:09.985Z,1.30
2023-01-08T00:12:14.025Z,1.47
2023-01-08T00:15:16.050Z,1.42
2023-01-08T00:18:21.303Z,1.22
2023-01-08T00:21:24.654Z,1.36
2023-01-08T00:24:26.451Z,1.47
2023-01-08T00:27:30.372Z,1.43
2023-01-08T00:30:32.215Z,1.17
2023-01-08T00:33:39.738Z,0.98
2023-01-08T00:36:42.957Z,1.07
2023-01-08T00:39:48.889Z,1.29
2023-01-08T00:42:50.922Z,1.37
2023-01-08T00:45:54.806Z,1.32
2023-01-08T00:48:56.759Z,1.15
2023-01-08T00:52:07.614Z,1.24
2023-01-08T00:55:09.894Z,1.23
2023-01-08T00:58:13.431Z,0.63
2023-01-08T01:01:18.555Z,0.63
2023-01-08T01:04:21.045Z,0.65
2023-01-08T01:07:24.773Z,0.65
2023-01-08T01:10:27.551Z,0.84
2023-01-08T01:13:29.661Z,0.99
2023-01-08T01:16:31.983Z,1.03
2023-01-08T01:19:34.022Z,1.16
2023-01-08T01:22:43.026Z,1.34
2023-01-08T01:25:45.895Z,1.44
2023-01-08T01:28:49.719Z,1.22
2023-01-08T01:31:51.887Z,0.98
2023-01-08T01:34:53.927Z,0.98
2023-01-08T01:37:57.527Z,0.88
2023-01-08T01:41:02.154Z,0.87
2023-01-08T01:44:35.617Z,1.05
2023-01-08T01:47:40.369Z,1.11
2023-01-08T01:50:46.493Z,1.21
2023-01-08T01:53:50.611Z,1.31
2023-01-08T01:56:52.740Z,1.28
2023-01-08T01:59:59.329Z,1.29
2023-01-08T02:03:01.657Z,1.33
2023-01-08T02:06:15.508Z,1.17
2023-01-08T02:09:25.505Z,1.16
2023-01-08T02:12:36.118Z,0.99
2023-01-08T02:15:49.867Z,1.09
2023-01-08T02:18:56.863Z,1.12
2023-01-08T02:22:06.994Z,1.17
2023-01-08T02:25:21.826Z,1.25
2023-01-08T02:28:27.159Z,1.31
2023-01-08T02:31:33.036Z,1.24
2023-01-08T02:34:34.848Z,1.17
2023-01-08T02:37:38.806Z,1.15
2023-01-08T02:40:54.907Z,1.18
2023-01-08T02:44:00.276Z,1.21
2023-01-08T02:47:05.811Z,1.18
2023-01-08T02:50:19.313Z,1.07
2023-01-08T02:53:25.182Z,0.77
2023-01-08T02:56:31.116Z,0.19
2023-01-08T02:59:41.980Z,0.32
2023-01-08T03:02:45.135Z,0.43
2023-01-08T03:05:51.177Z,0.36
2023-01-08T03:08:54.258Z,0.49
2023-01-08T03:12:04.656Z,0.64
2023-01-08T03:15:12.373Z,0.50
2023-01-08T03:18:18.908Z,0.56
2023-01-08T03:21:22.967Z,0.73
2023-01-08T03:24:28.647Z,0.83
2023-01-08T03:27:33.989Z,0.81
2023-01-08T03:30:41.434Z,0.93
2023-01-08T03:33:47.837Z,0.89
2023-01-08T03:36:53.685Z,0.93
2023-01-08T03:40:02.115Z,0.94
2023-01-08T03:43:04.273Z,0.86
2023-01-08T03:46:11.189Z,0.52
2023-01-08T03:49:15.689Z,0.07
2023-01-08T03:52:25.514Z,0.12
2023-01-08T03:55:29.373Z,0.32
2023-01-08T03:58:31.232Z,0.52
2023-01-08T04:01:39.696Z,0.61
2023-01-08T04:04:41.937Z,0.70
2023-01-08T04:07:43.743Z,0.73
2023-01-08T04:10:48.262Z,0.74
2023-01-08T04:13:50.825Z,0.75
2023-01-08T04:16:54.084Z,0.75
2023-01-08T04:19:57.375Z,0.67
2023-01-08T04:22:59.320Z,0.72
2023-01-08T04:26:04.635Z,0.76
2023-01-08T04:29:06.490Z,0.90
2023-01-08T04:32:10.816Z,0.83
2023-01-08T04:35:13.783Z,0.91
2023-01-08T04:38:15.714Z,0.93
2023-01-08T04:41:18.095Z,0.90
2023-01-08T04:44:20.011Z,0.78
2023-01-08T04:47:25.703Z,0.77
2023-01-08T04:50:28.559Z,0.71
2023-01-08T04:53:37.579Z,0.67
2023-01-08T04:56:39.368Z,0.66
2023-01-08T04:59:43.043Z,0.63
2023-01-08T05:02:46.506Z,0.57
2023-01-08T05:05:49.982Z,0.30
2023-01-08T05:08:53.108Z,0.25
2023-01-08T05:11:56.525Z,0.34
2023-01-08T05:14:58.369Z,-0.03
2023-01-08T05:18:06.854Z,-0.12
2023-01-08T05:21:09.045Z,-0.08
2023-01-08T05:24:10.989Z,-0.11
2023-01-08T05:27:14.459Z,-0.02
2023-01-08T05:30:16.750Z,0.09
2023-01-08T05:33:26.696Z,0.09
2023-01-08T05:36:28.491Z,0.14
2023-01-08T05:39:30.549Z,0.18
2023-01-08T05:42:36.372Z,0.12
2023-01-08T05:45:38.306Z,-0.01
2023-01-08T05:48:44.642Z,0.06
2023-01-08T05:51:46.460Z,0.06
2023-01-08T05:54:50.201Z,-0.02
2023-01-08T05:57:52.160Z,0.10
2023-01-08T06:01:03.634Z,0.23
2023-01-08T06:04:07.236Z,0.20
2023-01-08T06:07:09.636Z,0.29
2023-01-08T06:10:17.134Z,0.17
2023-01-08T06:13:19.214Z,0.25
2023-01-08T06:16:22.624Z,0.28
2023-01-08T06:19:25.912Z,0.19
2023-01-08T06:22:29.614Z,0.29
2023-01-08T06:25:31.532Z,0.25
2023-01-08T06:28:35.819Z,0.37
2023-01-08T06:31:39.860Z,0.32
2023-01-08T06:34:43.130Z,0.37
2023-01-08T06:37:44.979Z,0.28
2023-01-08T06:40:49.323Z,0.22
2023-01-08T06:43:51.276Z,0.27
2023-01-08T06:47:02.053Z,0.33
2023-01-08T06:50:05.970Z,0.35
2023-01-08T06:53:07.795Z,0.25
2023-01-08T06:56:09.743Z,0.15
2023-01-08T06:59:17.579Z,0.08
2023-01-08T07:02:20.038Z,0.14
2023-01-08T07:05:23.901Z,0.17
2023-01-08T07:08:28.590Z,0.19
2023-01-08T07:11:30.682Z,0.07
2023-01-08T07:14:32.833Z,0.03
2023-01-08T07:17:37.999Z,0.07
2023-01-08T07:20:41.253Z,0.06
2023-01-08T07:23:44.651Z,-0.18
2023-01-08T07:26:46.584Z,0.03
2023-01-08T07:29:48.725Z,0.09
2023-01-08T07:32:50.544Z,0.09
2023-01-08T07:35:58.290Z,0.17
2023-01-08T07:39:00.090Z,0.14
2023-01-08T07:42:04.029Z,0.25
2023-01-08T07:45:07.318Z,0.18
2023-01-08T07:48:12.659Z,0.17
2023-01-08T07:51:16.335Z,0.08
2023-01-08T07:54:19.438Z,-0.01
2023-01-08T07:57:24.257Z,0.01
2023-01-08T08:00:26.861Z,-0.18
2023-01-08T08:03:28.828Z,-0.09
2023-01-08T08:06:36.618Z,0.12
2023-01-08T08:09:38.403Z,0.16
2023-01-08T08:12:49.284Z,0.26
2023-01-08T08:15:51.226Z,0.30
2023-01-08T08:18:53.080Z,0.35
2023-01-08T08:21:58.366Z,0.43
2023-01-08T08:25:00.489Z,0.53
2023-01-08T08:28:03.517Z,0.58
2023-01-08T08:31:08.729Z,0.65
2023-01-08T08:34:10.577Z,0.71
2023-01-08T08:37:19.141Z,0.72
2023-01-08T08:40:22.027Z,0.79
2023-01-08T08:43:27.675Z,0.87
2023-01-08T08:46:29.655Z,0.90
2023-01-08T08:49:35.352Z,0.98
2023-01-08T08:52:38.851Z,1.00
2023-01-08T08:55:40.956Z,1.09
2023-01-08T08:58:43.387Z,1.16
2023-01-08T09:01:45.404Z,1.19
2023-01-08T09:04:51.348Z,1.24
2023-01-08T09:07:54.741Z,1.20
2023-01-08T09:10:58.254Z,1.22
2023-01-08T09:14:00.302Z,1.20
2023-01-08T09:17:03.963Z,1.22
2023-01-08T09:20:07.052Z,1.29
2023-01-08T09:23:10.506Z,1.35
2023-01-08T09:26:12.691Z,1.44
2023-01-08T09:29:15.575Z,1.51
2023-01-08T09:32:17.598Z,1.49
2023-01-08T09:35:19.425Z,1.50
2023-01-08T09:38:29.878Z,1.51
2023-01-08T09:41:34.091Z,1.51
2023-01-08T09:44:38.839Z,1.44
2023-01-08T09:47:46.710Z,1.53
2023-01-08T09:50:49.150Z,1.55
2023-01-08T09:53:55.814Z,1.53
2023-01-08T09:56:59.691Z,1.52
2023-01-08T10:00:02.348Z,1.57
2023-01-08T10:03:04.366Z,1.52
2023-01-08T10:06:10.120Z,1.59
2023-01-08T10:09:14.736Z,1.62
2023-01-08T10:12:25.714Z,1.58
2023-01-08T10:15:27.597Z,1.53
2023-01-08T10:18:30.827Z,1.48
2023-01-08T10:21:38.228Z,1.48
2023-01-08T10:24:43.297Z,1.51
2023-01-08T10:27:50.519Z,1.49
2023-01-08T10:30:58.425Z,1.48
2023-01-08T10:34:10.024Z,1.52
2023-01-08T10:37:26.557Z,1.51
2023-01-08T10:40:36.786Z,1.59
2023-01-08T10:43:50.843Z,1.63
2023-01-08T10:47:00.314Z,1.70
2023-01-08T10:50:05.887Z,1.68
2023-01-08T10:53:29.256Z,1.74
2023-01-08T10:56:43.379Z,1.76
2023-01-08T10:59:46.255Z,1.83
2023-01-08T11:02:48.391Z,1.85
2023-01-08T11:05:51.152Z,1.88
2023-01-08T11:08:55.496Z,1.81
2023-01-08T11:12:00.657Z,1.91
2023-01-08T11:15:04.595Z,1.98
2023-01-08T11:18:22.342Z,2.05
2023-01-08T11:21:27.524Z,2.04
2023-01-08T11:24:30.932Z,2.14
2023-01-08T11:27:36.974Z,2.19
2023-01-08T11:30:39.650Z,2.24
2023-01-08T11:33:47.968Z,2.12
2023-01-08T11:36:54.334Z,2.13
2023-01-08T11:39:57.816Z,2.15
2023-01-08T11:43:18.060Z,2.16
2023-01-08T11:46:32.679Z,2.16
2023-01-08T11:50:02.851Z,2.22
2023-01-08T11:53:17.501Z,2.26
2023-01-08T11:56:30.581Z,2.28
2023-01-08T11:59:52.413Z,2.28
2023-01-08T12:02:56.332Z,2.23
2023-01-08T12:06:12.435Z,2.24
2023-01-08T12:09:22.588Z,2.29
2023-01-08T12:12:41.039Z,2.34
2023-01-08T12:15:55.886Z,2.45
2023-01-08T12:19:21.744Z,2.45
2023-01-08T12:22:34.368Z,2.42
2023-01-08T12:25:50.444Z,2.33
2023-01-08T12:29:21.951Z,2.29
2023-01-08T12:32:29.140Z,2.26
2023-01-08T12:35:36.516Z,2.33
2023-01-08T12:38:42.049Z,2.38
2023-01-08T12:41:46.923Z,2.46
2023-01-08T12:44:48.841Z,2.56
2023-01-08T12:47:56.716Z,2.59
2023-01-08T12:51:04.920Z,2.63
2023-01-08T12:54:16.777Z,2.64
2023-01-08T12:57:28.823Z,2.64
2023-01-08T13:00:39.908Z,2.61
2023-01-08T13:03:45.421Z,2.67
2023-01-08T13:06:51.895Z,2.67
2023-01-08T13:10:03.996Z,2.71
2023-01-08T13:13:07.391Z,2.63
2023-01-08T13:16:19.902Z,2.57
2023-01-08T13:19:27.824Z,2.60
2023-01-08T13:22:32.347Z,2.57
2023-01-08T13:25:37.310Z,2.51
2023-01-08T13:28:43.101Z,2.50
2023-01-08T13:31:45.417Z,2.51
2023-01-08T13:35:02.214Z,2.51
2023-01-08T13:38:23.013Z,2.63
2023-01-08T13:41:25.980Z,2.67
2023-01-08T13:44:29.661Z,2.72
2023-01-08T13:47:36.748Z,2.80
2023-01-08T13:50:48.278Z,2.90
2023-01-08T13:53:50.297Z,2.93
2023-01-08T13:56:56.110Z,3.00
2023-01-08T13:59:59.948Z,2.93
2023-01-08T14:03:01.887Z,3.01
2023-01-08T14:06:16.791Z,3.06
2023-01-08T14:09:23.323Z,3.07
2023-01-08T14:12:26.482Z,3.10
2023-01-08T14:15:29.608Z,3.08
2023-01-08T14:18:33.124Z,3.06
2023-01-08T14:21:38.127Z,3.00
2023-01-08T14:24:44.252Z,2.95
2023-01-08T14:27:56.407Z,2.92
2023-01-08T14:31:01.598Z,2.84
2023-01-08T14:34:05.146Z,2.85
2023-01-08T14:37:13.172Z,2.85
2023-01-08T14:40:16.192Z,2.87
2023-01-08T14:43:20.376Z,2.91
2023-01-08T14:46:25.563Z,2.89
2023-01-08T14:49:32.483Z,2.97
2023-01-08T14:52:40.767Z,2.92
2023-01-08T14:55:45.430Z,2.85
2023-01-08T14:58:47.612Z,2.86
2023-01-08T15:01:54.411Z,2.90
2023-01-08T15:05:13.024Z,2.84
2023-01-08T15:08:25.784Z,2.86
2023-01-08T15:11:31.142Z,2.86
2023-01-08T15:14:36.950Z,2.90
2023-01-08T15:17:40.575Z,2.93
2023-01-08T15:20:45.847Z,2.88
2023-01-08T15:23:51.915Z,2.87
2023-01-08T15:26:57.429Z,2.94
2023-01-08T15:29:59.788Z,2.95
2023-01-08T15:33:16.992Z,2.88
2023-01-08T15:36:18.830Z,2.80
2023-01-08T15:39:23.656Z,2.81
2023-01-08T15:42:29.945Z,2.79
2023-01-08T15:45:32.903Z,2.79
2023-01-08T15:48:34.847Z,2.75
2023-01-08T15:51:48.317Z,2.64
2023-01-08T15:54:52.615Z,2.65
2023-01-08T15:57:55.161Z,2.64
2023-01-08T16:00:58.525Z,2.63
2023-01-08T16:04:01.005Z,2.51
2023-01-08T16:07:03.520Z,2.50
2023-01-08T16:10:08.221Z,2.52
2023-01-08T16:13:13.396Z,2.51
2023-01-08T16:16:17.225Z,2.46
2023-01-08T16:19:19.929Z,2.50
2023-01-08T16:22:23.605Z,2.51
2023-01-08T16:25:27.827Z,2.46
2023-01-08T16:28:30.039Z,2.43
2023-01-08T16:31:32.304Z,2.45
2023-01-08T16:34:36.859Z,2.47
2023-01-08T16:37:39.454Z,2.41
2023-01-08T16:40:48.136Z,2.39
2023-01-08T16:43:50.597Z,2.42
2023-01-08T16:46:53.406Z,2.35
2023-01-08T16:49:57.768Z,2.48
2023-01-08T16:53:00.127Z,2.51
2023-01-08T16:56:10.320Z,2.47
2023-01-08T16:59:22.823Z,2.36
2023-01-08T17:02:28.506Z,2.43
2023-01-08T17:05:31.166Z,2.43
2023-01-08T17:08:36.516Z,2.46
2023-01-08T17:11:40.025Z,2.51
2023-01-08T17:14:44.169Z,2.51
2023-01-08T17:17:46.156Z,2.41
2023-01-08T17:20:56.710Z,2.52
2023-01-08T17:23:59.251Z,2.45
2023-01-08T17:27:05.208Z,2.37
2023-01-08T17:30:10.248Z,2.46
2023-01-08T17:33:14.712Z,2.38
2023-01-08T17:36:20.449Z,2.42
2023-01-08T17:39:23.489Z,2.38
2023-01-08T17:42:30.124Z,2.22
2023-01-08T17:45:32.231Z,2.09
2023-01-08T17:48:39.178Z,2.21
2023-01-08T17:51:42.148Z,2.09
2023-01-08T17:54:45.013Z,2.03
2023-01-08T17:57:50.239Z,1.96
2023-01-08T18:00:53.530Z,2.02
2023-01-08T18:03:55.913Z,1.99
2023-01-08T18:06:59.536Z,1.93
2023-01-08T18:10:02.374Z,1.91
2023-01-08T18:13:06.580Z,1.95
2023-01-08T18:16:12.970Z,1.91
2023-01-08T18:19:15.763Z,1.91
2023-01-08T18:22:21.008Z,1.93
2023-01-08T18:25:23.404Z,1.89
2023-01-08T18:28:28.409Z,1.84
2023-01-08T18:31:30.729Z,1.80
2023-01-08T18:34:34.688Z,1.79
2023-01-08T18:37:38.048Z,1.78
2023-01-08T18:40:41.680Z,1.78
2023-01-08T18:43:46.266Z,1.75
2023-01-08T18:46:48.794Z,1.78
2023-01-08T18:49:53.621Z,1.79
2023-01-08T18:52:55.882Z,1.82
2023-01-08T18:56:01.860Z,1.83
2023-01-08T18:59:06.560Z,1.76
2023-01-08T19:02:17.874Z,1.73
2023-01-08T19:05:20.924Z,1.78
2023-01-08T19:08:24.960Z,1.78
2023-01-08T19:11:27.172Z,1.80
2023-01-08T19:14:36.843Z,1.64
2023-01-08T19:17:39.726Z,1.65
2023-01-08T19:20:44.094Z,1.76
2023-01-08T19:23:46.852Z,1.78
2023-01-08T19:26:51.219Z,1.72
2023-01-08T19:29:55.877Z,1.79
2023-01-08T19:32:57.924Z,1.75
2023-01-08T19:36:02.996Z,1.62
2023-01-08T19:39:05.674Z,1.61
2023-01-08T19:42:12.305Z,1.51
2023-01-08T19:45:16.513Z,1.53
2023-01-08T19:48:20.871Z,1.52
2023-01-08T19:51:24.182Z,1.53
2023-01-08T19:54:26.399Z,1.52
2023-01-08T19:57:29.979Z,1.52
2023-01-08T20:00:37.310Z,1.46
2023-01-08T20:03:42.897Z,1.46
2023-01-08T20:06:47.969Z,1.45
2023-01-08T20:09:50.767Z,1.48
2023-01-08T20:12:53.204Z,1.46
2023-01-08T20:15:59.489Z,1.44
2023-01-08T20:19:04.406Z,1.43
2023-01-08T20:22:09.760Z,1.44
2023-01-08T20:25:12.930Z,1.50
2023-01-08T20:28:15.295Z,1.42
2023-01-08T20:31:19.966Z,1.39
2023-01-08T20:34:26.313Z,1.39
2023-01-08T20:37:29.123Z,1.38
2023-01-08T20:40:34.883Z,1.47
2023-01-08T20:43:39.214Z,1.52
2023-01-08T20:46:43.171Z,1.47
2023-01-08T20:49:47.762Z,1.48
2023-01-08T20:52:51.190Z,1.50
2023-01-08T20:55:53.482Z,1.59
2023-01-08T20:58:59.387Z,1.58
2023-01-08T21:02:03.083Z,1.61
2023-01-08T21:05:06.479Z,1.49
2023-01-08T21:08:09.008Z,1.46
2023-01-08T21:11:12.610Z,1.41
2023-01-08T21:14:14.715Z,1.50
2023-01-08T21:17:22.322Z,1.66
2023-01-08T21:20:24.167Z,1.54
2023-01-08T21:23:29.355Z,1.52
2023-01-08T21:26:31.781Z,1.54
2023-01-08T21:29:36.738Z,1.57
2023-01-08T21:32:40.883Z,1.57
2023-01-08T21:35:44.071Z,1.53
2023-01-08T21:38:46.625Z,1.56
2023-01-08T21:41:50.591Z,1.60
2023-01-08T21:44:52.403Z,1.60
2023-01-08T21:48:00.157Z,1.65
2023-01-08T21:51:02.465Z,1.65
2023-01-08T21:54:04.733Z,1.64
2023-01-08T21:57:07.733Z,1.71
2023-01-08T22:00:11.261Z,1.53
2023-01-08T22:03:14.823Z,1.49
2023-01-08T22:06:16.852Z,1.53
2023-01-08T22:09:19.115Z,1.56
2023-01-08T22:12:22.242Z,1.51
2023-01-08T22:15:24.062Z,1.47
2023-01-08T22:18:34.877Z,1.52
2023-01-08T22:21:37.279Z,1.51
2023-01-08T22:24:40.050Z,1.46
2023-01-08T22:27:44.244Z,1.50
2023-01-08T22:30:47.374Z,1.49
2023-01-08T22:33:53.675Z,1.48
2023-01-08T22:36:55.497Z,1.48
2023-01-08T22:39:57.666Z,1.52
2023-01-08T22:42:59.566Z,1.58
2023-01-08T22:46:01.930Z,1.61
2023-01-08T22:49:10.167Z,1.66
2023-01-08T22:52:13.283Z,1.56
2023-01-08T22:55:15.118Z,1.54
2023-01-08T22:58:18.530Z,1.56
2023-01-08T23:01:22.823Z,1.60
2023-01-08T23:04:27.084Z,1.67
2023-01-08T23:07:28.904Z,1.66
2023-01-08T23:10:33.821Z,1.73
2023-01-08T23:13:36.617Z,1.75
2023-01-08T23:16:40.142Z,1.75
2023-01-08T23:19:43.445Z,1.67
2023-01-08T23:22:45.525Z,1.67
2023-01-08T23:25:49.995Z,1.65
2023-01-08T23:28:53.738Z,1.64
2023-01-08T23:31:56.431Z,1.66
2023-01-08T23:34:59.735Z,1.67
2023-01-08T23:38:03.175Z,1.74
2023-01-08T23:41:06.401Z,1.78
2023-01-08T23:44:12.452Z,1.85
2023-01-08T23:47:14.575Z,1.78
2023-01-08T23:50:20.437Z,1.84
2023-01-08T23:53:23.356Z,1.87
2023-01-08T23:56:25.575Z,1.86
2023-01-08T23:59:27.544Z,1.78
